Time;durP1;ratioP1;P1;durP2;ratioP2;P2;SDS_P1;SDS_P2;PMS_P1;PMS_P2;Temp;Humidity;BMP_temperature;BMP_pressure;BME280_temperature;BME280_humidity;BME280_pressure;Samples;Min_cycle;Max_cycle;Signal;HPM_P1;HPM_P2
2023/02/15 00:00:25;;;;;;;70.10;46.35;;;7.30;99.90;;;7.40;76.33;102735.06;5113588;28;20051;-71
2023/02/15 00:02:54;;;;;;;60.97;42.95;;;7.10;99.90;;;7.27;76.06;102731.97;5112921;28;20442;-70
2023/02/15 00:05:23;;;;;;;60.15;41.80;;;7.00;99.90;;;7.31;75.80;102738.25;5113503;28;20043;-70
2023/02/15 00:07:52;;;;;;;67.30;45.28;;;7.00;99.90;;;7.46;75.72;102725.66;5113802;28;20066;-71
2023/02/15 00:10:20;;;;;;;65.55;42.47;;;7.10;99.90;;;7.41;75.47;102724.63;5113367;28;20437;-71
2023/02/15 00:12:48;;;;;;;53.90;38.70;;;7.10;99.90;;;7.39;75.08;102728.91;5113902;28;20055;-69
2023/02/15 00:15:17;;;;;;;67.20;42.65;;;7.10;99.90;;;7.21;74.17;102717.69;5113672;28;20043;-70
2023/02/15 00:17:45;;;;;;;63.35;43.40;;;7.00;99.90;;;7.23;74.28;102716.00;5113313;28;20152;-70
2023/02/15 00:20:13;;;;;;;69.05;46.72;;;7.00;99.90;;;7.32;75.08;102707.56;5095338;28;20096;-71
2023/02/15 00:22:43;;;;;;;82.55;52.17;;;7.00;99.90;;;7.44;75.40;102711.56;5113279;28;20489;-71
2023/02/15 00:25:11;;;;;;;79.50;52.42;;;7.20;99.90;;;7.58;76.30;102705.06;5113244;28;20039;-71
2023/02/15 00:27:40;;;;;;;80.00;51.83;;;7.30;99.90;;;7.72;77.30;102711.75;5095243;28;20044;-71
2023/02/15 00:30:09;;;;;;;77.43;50.30;;;7.40;99.90;;;7.74;77.23;102712.69;5113459;28;20384;-71
2023/02/15 00:32:37;;;;;;;96.97;60.63;;;7.50;99.90;;;7.61;79.84;102704.25;5113306;28;20040;-71
2023/02/15 00:35:07;;;;;;;86.63;54.33;;;7.40;99.90;;;7.59;79.65;102701.59;5113388;28;20058;-69
2023/02/15 00:37:35;;;;;;;110.57;67.13;;;7.40;99.90;;;7.76;81.05;102705.72;5113275;28;20043;-71
2023/02/15 00:40:07;;;;;;;89.13;58.53;;;7.50;99.90;;;7.96;81.27;102703.81;5113041;28;20059;-71
2023/02/15 00:42:36;;;;;;;107.50;68.82;;;7.60;99.90;;;7.90;82.13;102701.84;5113367;28;20043;-71
2023/02/15 00:45:05;;;;;;;83.13;53.60;;;7.60;99.90;;;7.94;80.85;102698.50;5094873;28;20050;-70
2023/02/15 00:47:33;;;;;;;93.00;57.75;;;7.70;99.90;;;7.94;79.97;102703.75;5113252;28;20054;-70
2023/02/15 00:50:02;;;;;;;93.75;61.08;;;7.70;99.90;;;7.99;80.13;102696.91;5094946;28;20130;-71
2023/02/15 00:52:31;;;;;;;96.72;62.30;;;7.70;99.90;;;8.07;80.30;102698.06;5112926;28;20082;-71
2023/02/15 00:54:59;;;;;;;106.68;67.15;;;7.80;99.90;;;8.17;80.35;102694.94;5113226;28;20039;-70
2023/02/15 00:57:29;;;;;;;108.55;68.15;;;7.90;99.90;;;8.34;80.90;102694.66;5094849;28;20576;-70
2023/02/15 00:59:57;;;;;;;107.60;67.50;;;8.10;99.90;;;8.43;81.69;102692.31;5113147;28;20074;-71
2023/02/15 01:02:25;;;;;;;105.28;67.25;;;8.20;99.90;;;8.52;81.83;102695.25;5112788;28;20043;-71
2023/02/15 01:04:54;;;;;;;100.93;65.47;;;8.30;99.90;;;8.59;81.33;102689.34;5113066;28;20078;-71
2023/02/15 01:07:23;;;;;;;102.15;66.38;;;8.40;99.90;;;8.61;81.25;102698.22;5113069;28;20755;-72
2023/02/15 01:09:53;;;;;;;101.65;63.70;;;8.40;99.90;;;8.65;80.98;102687.78;5094965;28;20058;-73
2023/02/15 01:12:21;;;;;;;96.57;64.20;;;8.50;99.90;;;8.75;81.21;102696.91;5112898;28;20130;-72
2023/02/15 01:14:51;;;;;;;101.65;65.85;;;8.50;99.90;;;8.77;81.77;102687.28;5096985;28;20066;-71
2023/02/15 01:17:20;;;;;;;103.07;66.03;;;8.60;99.90;;;8.84;81.70;102684.91;5116810;28;20551;-74
2023/02/15 01:19:48;;;;;;;94.97;63.55;;;8.60;99.90;;;8.78;81.25;102684.72;5116792;28;20048;-74
2023/02/15 01:22:16;;;;;;;94.60;62.08;;;8.60;99.90;;;8.82;81.48;102683.97;5098554;28;20139;-74
2023/02/15 01:24:45;;;;;;;99.30;63.85;;;8.60;99.90;;;8.87;80.73;102684.09;5098603;28;20055;-74
2023/02/15 01:27:13;;;;;;;96.90;63.28;;;8.60;99.90;;;8.76;81.22;102665.31;5116906;28;20039;-74
2023/02/15 01:29:42;;;;;;;99.18;61.63;;;8.60;99.90;;;8.81;81.14;102676.88;5116498;28;20042;-74
2023/02/15 01:32:11;;;;;;;93.30;61.38;;;8.60;99.90;;;8.80;80.80;102682.13;5116695;28;20134;-70
2023/02/15 01:34:43;;;;;;;100.50;64.47;;;8.60;99.90;;;8.82;80.41;102675.16;5116788;28;20534;-72
2023/02/15 01:37:11;;;;;;;96.40;63.17;;;8.50;99.90;;;8.82;80.16;102675.16;5116702;28;20071;-72
2023/02/15 01:39:39;;;;;;;97.43;62.97;;;8.60;99.90;;;8.82;80.12;102667.22;5098095;28;20039;-72
2023/02/15 01:42:11;;;;;;;91.55;61.20;;;8.60;99.90;;;8.82;80.32;102668.13;5098279;28;20096;-72
2023/02/15 01:44:59;;;;;;;98.18;62.28;;;8.60;99.90;;;8.81;79.84;102663.69;5116633;28;20063;-72
2023/02/15 01:47:38;;;;;;;98.75;64.47;;;8.60;99.90;;;8.81;80.57;102655.78;5116381;28;20393;-72
2023/02/15 01:50:13;;;;;;;105.28;64.80;;;8.60;99.90;;;8.70;81.04;102629.91;5098216;28;20097;-72
2023/02/15 01:52:50;;;;;;;102.32;64.72;;;8.60;99.90;;;8.80;80.97;102655.75;5116415;28;20452;-72
2023/02/15 01:55:19;;;;;;;98.15;64.15;;;8.60;99.90;;;8.01;81.74;102537.13;5116100;28;20100;-72
2023/02/15 01:57:47;;;;;;;96.25;62.08;;;8.40;99.90;;;8.69;81.92;102644.81;5116320;28;20044;-72
2023/02/15 02:00:17;;;;;;;96.60;62.88;;;8.40;99.90;;;8.61;81.13;102650.72;5115968;28;20071;-72
2023/02/15 02:02:54;;;;;;;86.85;56.42;;;8.40;99.90;;;8.59;80.42;102645.41;5097813;28;20044;-72
2023/02/15 02:05:26;;;;;;;94.43;61.15;;;8.40;99.90;;;8.39;80.07;102635.03;5097469;28;20055;-72
2023/02/15 02:07:59;;;;;;;86.10;56.53;;;8.30;99.90;;;8.46;80.02;102645.84;5116343;28;20048;-72
2023/02/15 02:10:28;;;;;;;85.93;56.75;;;8.20;99.90;;;8.44;79.91;102644.03;5116099;28;20035;-72
2023/02/15 02:13:01;;;;;;;87.68;58.50;;;8.20;99.90;;;8.38;79.61;102642.03;5115946;28;20071;-72
2023/02/15 02:15:44;;;;;;;90.95;56.40;;;8.10;99.90;;;8.29;79.65;102627.66;5116016;28;20044;-72
2023/02/15 02:18:28;;;;;;;81.93;56.53;;;8.10;99.90;;;8.30;79.28;102634.75;5097606;28;20557;-72
2023/02/15 02:21:41;;;;;;;81.97;55.03;;;8.00;99.90;;;8.31;79.10;102631.25;5115929;28;20084;-72
2023/02/15 02:24:59;;;;;;;87.82;56.30;;;8.00;99.90;;;8.32;79.15;102626.06;5115806;28;20050;-71
2023/02/15 02:27:37;;;;;;;79.63;55.83;;;8.00;99.90;;;8.18;78.85;102625.56;5115182;28;20442;-73
2023/02/15 02:30:52;;;;;;;86.22;56.72;;;7.90;99.90;;;8.13;78.78;102616.59;5097116;28;20054;-72
2023/02/15 02:33:56;;;;;;;91.65;57.83;;;7.90;99.90;;;8.13;78.74;102607.78;5115603;28;20054;-71
2023/02/15 02:36:36;;;;;;;86.45;57.53;;;7.90;99.90;;;8.13;78.72;102606.03;5097375;28;20162;-72
2023/02/15 02:39:23;;;;;;;93.00;59.97;;;7.90;99.90;;;8.14;78.64;102599.03;5097218;28;20054;-72
2023/02/15 02:42:02;;;;;;;93.55;59.88;;;7.90;99.90;;;8.17;78.78;102609.69;5093024;28;20286;-72
2023/02/15 02:44:36;;;;;;;92.22;61.47;;;7.90;99.90;;;8.13;79.13;102598.13;5095016;28;20055;-71
2023/02/15 02:47:12;;;;;;;98.13;60.67;;;7.80;99.90;;;8.11;79.44;102597.19;5095085;28;20048;-72
2023/02/15 02:49:44;;;;;;;97.85;62.45;;;7.80;99.90;;;8.17;79.80;102596.50;5094833;28;20409;-71
2023/02/15 02:52:39;;;;;;;95.45;61.45;;;7.90;99.90;;;8.16;80.11;102600.00;5093518;28;20044;-72
2023/02/15 02:55:14;;;;;;;95.03;60.35;;;7.90;99.90;;;8.21;80.25;102596.66;5093514;28;20048;-72
2023/02/15 02:57:53;;;;;;;97.78;60.00;;;7.90;99.90;;;8.19;80.14;102594.81;5093482;28;20055;-72
2023/02/15 03:00:25;;;;;;;89.68;59.63;;;7.90;99.90;;;8.21;80.10;102598.38;5094795;28;20122;-72
2023/02/15 03:02:59;;;;;;;85.35;56.30;;;7.90;99.90;;;8.16;79.69;102589.44;5094752;28;20109;-72
2023/02/15 03:05:30;;;;;;;72.60;49.08;;;7.90;99.90;;;7.92;78.46;102578.06;5094650;28;20127;-72
2023/02/15 03:08:05;;;;;;;78.65;47.60;;;7.70;99.90;;;7.71;76.89;102578.25;5093242;28;20059;-72
2023/02/15 03:10:36;;;;;;;80.63;51.45;;;7.50;99.90;;;7.43;76.28;102578.16;5094492;28;20048;-73
2023/02/15 03:13:06;;;;;;;69.20;48.65;;;7.20;99.90;;;7.29;75.42;102576.75;5092498;28;20048;-60
2023/02/15 03:18:28;;;;;;;62.95;46.28;;;7.00;99.90;;;7.06;75.64;102546.97;5093056;28;20050;-61
2023/02/15 03:21:01;;;;;;;64.35;47.25;;;6.90;99.90;;;7.09;74.06;102556.69;5110119;28;20121;-60
2023/02/15 03:23:30;;;;;;;66.22;47.85;;;6.90;99.90;;;7.20;73.55;102565.91;5092713;28;20097;-61
2023/02/15 03:26:04;;;;;;;76.88;51.00;;;6.80;99.90;;;7.19;73.44;102564.09;5092991;28;20493;-62
2023/02/15 03:28:40;;;;;;;72.97;49.17;;;6.90;99.90;;;7.16;73.65;102564.88;5094309;28;20051;-63
2023/02/15 03:31:11;;;;;;;82.90;52.13;;;6.90;99.90;;;7.14;74.73;102565.66;5094248;28;20442;-62
2023/02/15 03:33:43;;;;;;;;;;;6.90;99.90;;;7.11;76.10;102569.06;5093261;28;20055;-61
2023/02/15 03:36:21;;;;;;;84.50;56.20;;;6.90;99.90;;;6.98;76.56;102531.75;5094167;28;20331;-61
2023/02/15 03:39:00;;;;;;;94.57;58.78;;;6.90;99.90;;;7.27;77.99;102557.38;5093153;28;20043;-62
2023/02/15 03:41:35;;;;;;;83.10;53.17;;;7.00;99.90;;;7.23;77.30;102550.19;5109749;28;20066;-61
2023/02/15 03:44:09;;;;;;;79.07;53.50;;;6.90;99.90;;;7.21;77.08;102550.16;5114038;28;20451;-61
2023/02/15 03:46:46;;;;;;;78.15;52.33;;;6.90;99.90;;;7.09;77.74;102526.03;5114101;28;20054;-61
2023/02/15 03:49:22;;;;;;;92.80;58.90;;;6.90;99.90;;;6.39;79.00;102377.03;5096007;28;20075;-61
2023/02/15 03:51:56;;;;;;;98.20;60.75;;;7.00;99.90;;;7.51;79.86;102534.53;5095970;28;20067;-62
2023/02/15 03:54:46;;;;;;;93.72;58.75;;;7.20;99.90;;;7.37;80.17;102498.97;5095886;28;20432;-61
2023/02/15 04:03:22;;;;;;;98.65;60.80;;;7.50;99.90;;;7.77;81.35;102524.88;5113794;28;20067;-62
2023/02/15 04:05:50;;;;;;;94.53;60.55;;;7.50;99.90;;;7.81;81.79;102526.78;5114302;28;20039;-61
2023/02/15 04:10:51;;;;;;;96.50;59.85;;;7.60;99.90;;;7.91;81.64;102520.97;5113926;28;20038;-61
2023/02/15 04:11:08;;;;;;;96.03;60.53;;;7.60;99.90;;;7.78;81.01;102510.88;5113831;28;20508;-61
2023/02/15 04:13:36;;;;;;;97.65;59.15;;;7.60;99.90;;;7.69;80.46;102511.47;5113655;28;20039;-61
2023/02/15 04:16:04;;;;;;;91.07;59.40;;;7.50;99.90;;;7.51;80.21;102509.97;5113969;28;20083;-61
2023/02/15 04:27:02;;;;;;;80.78;53.97;;;6.90;99.90;;;7.11;78.43;102513.81;5113560;28;20050;-61
2023/02/15 04:29:31;;;;;;;85.93;54.03;;;6.80;99.90;;;6.64;78.56;102442.81;5113472;28;20119;-61
2023/02/15 04:32:01;;;;;;;85.60;55.25;;;6.80;99.90;;;6.87;78.53;102499.75;5113336;28;20044;-61
2023/02/15 04:34:29;;;;;;;87.05;56.47;;;6.70;99.90;;;6.95;78.81;102515.84;5113192;28;20032;-61
2023/02/15 04:36:58;;;;;;;90.50;57.70;;;6.70;99.90;;;6.91;78.76;102514.81;5095075;28;20035;-61
2023/02/15 04:39:28;;;;;;;96.15;59.90;;;6.70;99.90;;;6.89;78.96;102513.88;5113358;28;20042;-61
2023/02/15 04:41:56;;;;;;;90.57;57.28;;;6.60;99.90;;;6.89;79.33;102513.00;5112805;28;20108;-61
2023/02/15 04:44:24;;;;;;;89.07;57.45;;;6.60;99.90;;;6.78;78.87;102506.41;5113546;28;20481;-61
2023/02/15 04:46:53;;;;;;;89.63;56.63;;;6.50;99.90;;;6.79;79.85;102492.44;5113031;28;20105;-61
2023/02/15 04:49:21;;;;;;;92.15;56.67;;;6.50;99.90;;;6.83;79.82;102503.13;5112793;28;20036;-61
2023/02/15 04:51:50;;;;;;;84.28;54.90;;;6.50;99.90;;;6.55;80.14;102471.41;5112959;28;20036;-61
2023/02/15 04:54:18;;;;;;;96.38;59.58;;;6.40;99.90;;;6.73;83.13;102497.47;5112925;28;20078;-60
2023/02/15 04:56:48;;;;;;;94.72;58.05;;;6.40;99.90;;;6.68;84.34;102502.56;5094720;28;20047;-61
2023/02/15 04:59:17;;;;;;;93.10;59.30;;;6.30;99.90;;;6.53;84.82;102485.31;5113367;28;20047;-61
2023/02/15 05:01:45;;;;;;;94.32;59.30;;;6.20;99.90;;;6.52;84.97;102476.56;5112986;28;20069;-61
2023/02/15 05:04:14;;;;;;;94.40;56.90;;;6.30;99.90;;;6.74;85.48;102499.25;5113037;28;20043;-61
2023/02/15 05:06:42;;;;;;;96.55;59.25;;;6.40;99.90;;;6.63;85.16;102471.69;5113238;28;20108;-60
2023/02/15 05:09:12;;;;;;;98.15;60.15;;;6.50;99.90;;;6.93;85.61;102494.72;5112986;28;20040;-61
2023/02/15 05:11:43;;;;;;;98.43;60.70;;;6.60;99.90;;;6.89;85.83;102491.94;5113341;28;20048;-61
2023/02/15 05:14:13;;;;;;;98.18;60.80;;;6.60;99.90;;;6.75;85.83;102445.84;5112846;28;20048;-61
2023/02/15 05:16:42;;;;;;;103.70;62.70;;;6.70;99.90;;;7.11;85.90;102491.88;5113212;28;20135;-61
2023/02/15 05:19:11;;;;;;;108.63;65.57;;;6.80;99.90;;;7.13;85.53;102495.44;5094958;28;20390;-62
2023/02/15 05:21:40;;;;;;;106.47;63.70;;;6.90;99.90;;;7.15;85.33;102506.91;5112869;28;20122;-60
2023/02/15 05:29:38;;;;;;;105.07;65.45;;;7.00;99.90;;;7.25;85.37;102473.09;5094655;28;20562;-62
2023/02/15 05:32:07;;;;;;;104.43;62.58;;;7.10;99.90;;;7.02;85.15;102426.69;5112780;28;20035;-61
2023/02/15 05:34:35;;;;;;;104.45;60.60;;;7.10;99.90;;;7.31;85.16;102480.31;5112568;28;20066;-61
2023/02/15 05:37:03;;;;;;;102.75;61.72;;;7.00;99.90;;;5.30;85.20;102136.66;5094367;28;20053;-61
2023/02/15 05:39:35;;;;;;;99.30;60.05;;;7.10;99.90;;;7.14;85.36;102434.97;5112902;28;20044;-60
2023/02/15 05:42:04;;;;;;;98.57;61.38;;;7.10;99.90;;;7.24;84.81;102441.44;5113252;28;20074;-60
2023/02/15 05:44:32;;;;;;;101.85;60.75;;;7.10;99.90;;;7.46;84.57;102465.03;5112767;28;20040;-61
2023/02/15 05:47:02;;;;;;;94.35;57.78;;;7.10;99.90;;;7.38;84.40;102466.50;5112895;28;20044;-61
2023/02/15 05:49:31;;;;;;;97.93;59.67;;;7.10;99.90;;;7.24;84.60;102446.72;5112989;28;20048;-61
2023/02/15 05:52:00;;;;;;;92.90;57.13;;;7.00;99.90;;;7.30;84.61;102461.00;5094525;28;20047;-61
2023/02/15 05:54:29;;;;;;;93.72;58.67;;;7.00;99.90;;;7.06;84.84;102454.91;5112233;28;20040;-61
2023/02/15 05:56:57;;;;;;;96.35;59.78;;;6.90;99.90;;;6.96;85.14;102459.75;5112290;28;20040;-61
2023/02/15 05:59:26;;;;;;;103.50;59.53;;;6.70;99.90;;;6.83;86.04;102457.53;5094203;28;20086;-61
2023/02/15 06:01:55;;;;;;;97.45;58.08;;;6.60;99.90;;;6.70;86.33;102447.38;5096428;28;20400;-61
2023/02/15 06:04:24;;;;;;;98.25;60.08;;;6.50;99.90;;;6.50;86.79;102436.16;5116067;28;20135;-61
2023/02/15 06:06:53;;;;;;;95.50;59.50;;;6.40;99.90;;;6.41;87.75;102440.19;5116034;28;20486;-60
2023/02/15 06:09:21;;;;;;;107.05;63.15;;;6.20;99.90;;;6.29;88.87;102446.75;5097859;28;20047;-61
2023/02/15 06:11:50;;;;;;;99.40;60.72;;;6.10;99.90;;;4.26;89.15;102098.50;5115941;28;20043;-61
2023/02/15 06:14:18;;;;;;;111.82;64.38;;;6.10;99.90;;;6.09;90.06;102433.69;5116162;28;20043;-60
2023/02/15 06:16:47;;;;;;;107.63;64.38;;;6.00;99.90;;;6.37;90.24;102458.44;5116158;28;20050;-61
2023/02/15 06:19:16;;;;;;;103.25;63.45;;;6.10;99.90;;;6.51;90.11;102458.06;5115793;28;20040;-61
2023/02/15 06:21:46;;;;;;;111.28;64.65;;;6.30;99.90;;;6.37;89.95;102454.91;5097638;28;20067;-60
2023/02/15 06:24:15;;;;;;;101.72;61.42;;;6.20;99.90;;;6.34;90.31;102454.81;5115693;28;20040;-61
2023/02/15 06:26:43;;;;;;;106.22;62.53;;;6.20;99.90;;;5.96;90.95;102384.16;5115582;28;20040;-61
2023/02/15 06:29:13;;;;;;;113.82;65.32;;;6.10;99.90;;;6.33;90.69;102458.28;5115544;28;20115;-61
2023/02/15 06:31:42;;;;;;;117.28;65.80;;;6.10;99.90;;;6.32;90.63;102443.34;5115834;28;20043;-61
2023/02/15 06:34:10;;;;;;;112.55;66.63;;;6.20;99.90;;;6.31;89.92;102431.03;5115574;28;20081;-61
2023/02/15 06:36:39;;;;;;;106.95;65.43;;;6.30;99.90;;;6.28;89.94;102441.44;5097386;28;20075;-61
2023/02/15 06:39:09;;;;;;;116.28;66.07;;;6.20;99.90;;;6.43;90.03;102451.66;5097067;28;20043;-61
2023/02/15 06:41:38;;;;;;;108.63;65.90;;;6.30;99.90;;;6.39;89.79;102456.78;5115617;28;20085;-62
2023/02/15 06:44:06;;;;;;;105.40;63.38;;;6.30;99.90;;;6.47;89.85;102467.59;5115241;28;20035;-60
2023/02/15 06:46:35;;;;;;;114.88;66.60;;;6.30;99.90;;;6.46;89.46;102447.41;5115147;28;20126;-61
2023/02/15 06:49:04;;;;;;;106.60;63.13;;;6.40;99.90;;;6.39;89.44;102425.25;5115189;28;20039;-61
2023/02/15 06:51:33;;;;;;;105.97;64.32;;;6.40;99.90;;;6.46;89.63;102441.25;5114935;28;20088;-63
2023/02/15 06:54:02;;;;;;;104.50;59.30;;;6.40;99.90;;;6.23;89.29;102407.09;5115248;28;20423;-61
2023/02/15 06:56:32;;;;;;;105.45;63.92;;;6.30;99.90;;;6.36;89.86;102450.53;5115144;28;20324;-61
2023/02/15 06:59:01;;;;;;;107.43;62.22;;;6.20;99.90;;;5.94;90.12;102402.47;5115372;28;20044;-61
2023/02/15 07:01:29;;;;;;;100.30;59.10;;;6.10;99.90;;;6.00;90.39;102413.22;5096905;28;20043;-61
2023/02/15 07:03:58;;;;;;;107.55;65.10;;;6.00;99.90;;;5.91;90.83;102428.63;5114636;28;20108;-61
2023/02/15 07:06:26;;;;;;;106.55;63.88;;;5.80;99.90;;;5.76;91.69;102408.72;5114829;28;20454;-60
2023/02/15 07:08:54;;;;;;;106.00;63.88;;;5.80;99.90;;;5.99;91.87;102449.94;5114555;28;20401;-61
2023/02/15 07:14:11;;;;;;;106.33;64.30;;;5.70;99.90;;;5.70;92.55;102425.13;5114669;28;20481;-60
2023/02/15 07:16:39;;;;;;;108.43;64.22;;;5.60;99.90;;;5.83;92.80;102439.63;5115027;28;20063;-61
2023/02/15 07:19:08;;;;;;;111.38;63.75;;;5.60;99.90;;;5.24;92.87;102337.50;5114900;28;20067;-60
2023/02/15 07:21:37;;;;;;;104.35;63.75;;;5.60;99.90;;;5.91;93.05;102448.72;5113492;28;20046;-60
2023/02/15 07:24:07;;;;;;;108.57;64.80;;;5.70;99.90;;;6.03;92.56;102439.63;5114675;28;20439;-61
2023/02/15 07:26:35;;;;;;;112.25;64.93;;;5.80;99.90;;;6.12;92.49;102439.97;5114471;28;20150;-61
2023/02/15 07:29:04;;;;;;;109.15;63.50;;;5.90;99.90;;;5.87;92.25;102392.56;5114774;28;20048;-61
2023/02/15 07:31:34;;;;;;;112.45;66.30;;;5.90;99.90;;;6.17;91.77;102438.44;5114419;28;20374;-60
2023/02/15 07:34:03;;;;;;;112.38;61.38;;;5.90;99.90;;;6.08;91.66;102430.16;5114298;28;20083;-60
2023/02/15 07:36:32;;;;;;;101.55;60.92;;;6.00;99.90;;;5.83;91.21;102385.41;5114572;28;20043;-60
2023/02/15 07:39:00;;;;;;;106.40;62.88;;;6.00;99.90;;;5.45;90.94;102302.53;5114153;28;20066;-60
2023/02/15 07:41:29;;;;;;;104.15;63.35;;;5.90;99.90;;;6.07;91.67;102412.63;5113833;28;20462;-61
2023/02/15 07:43:57;;;;;;;106.95;62.17;;;6.00;99.90;;;6.12;91.11;102431.19;5113841;28;20122;-61
2023/02/15 07:46:25;;;;;;;103.57;62.08;;;5.90;99.90;;;6.11;91.35;102429.41;5114311;28;20043;-60
2023/02/15 07:48:56;;;;;;;102.47;62.20;;;5.90;99.90;;;6.05;91.45;102416.94;5113902;28;20045;-60
2023/02/15 07:51:24;;;;;;;111.25;61.95;;;5.90;99.90;;;6.22;91.28;102430.69;5095817;28;20058;-61
2023/02/15 07:53:53;;;;;;;106.43;62.95;;;6.00;99.90;;;5.50;91.58;102282.59;5113639;28;20505;-61
2023/02/15 07:56:21;;;;;;;107.60;62.10;;;6.10;99.90;;;6.00;91.38;102389.56;5113648;28;20043;-61
2023/02/15 07:58:52;;;;;;;99.72;61.90;;;6.10;99.90;;;6.46;91.25;102421.13;5113728;28;20044;-60
2023/02/15 08:01:24;;;;;;;111.57;63.13;;;6.20;99.90;;;6.49;90.82;102420.31;5114081;28;20397;-60
2023/02/15 08:03:55;;;;;;;114.72;64.45;;;6.30;99.90;;;5.89;90.42;102280.63;5113961;28;20051;-60
2023/02/15 08:06:27;;;;;;;106.20;61.72;;;6.50;99.90;;;6.78;89.55;102414.38;5113747;28;20043;-61
2023/02/15 08:08:55;;;;;;;102.25;63.90;;;6.60;99.90;;;6.91;88.78;102430.66;5113762;28;20046;-61
2023/02/15 08:11:28;;;;;;;103.43;60.47;;;6.70;99.90;;;6.78;88.45;102390.72;5095522;28;20130;-61
2023/02/15 08:14:00;;;;;;;100.93;60.97;;;6.80;99.90;;;6.92;87.97;102410.50;5113652;28;20039;-61
2023/02/15 08:16:33;;;;;;;107.82;61.35;;;6.80;99.90;;;6.96;88.42;102420.31;5113456;28;20143;-60
2023/02/15 08:19:07;;;;;;;102.25;62.42;;;6.70;99.90;;;6.94;87.68;102449.19;5113519;28;20489;-60
2023/02/15 08:21:41;;;;;;;104.57;63.10;;;6.80;99.90;;;6.97;87.48;102419.44;5094862;28;20405;-60
2023/02/15 08:24:12;;;;;;;101.07;62.38;;;6.70;99.90;;;6.98;87.80;102422.16;5094626;28;20043;-61
2023/02/15 08:26:42;;;;;;;93.43;59.60;;;6.70;99.90;;;5.47;87.65;102126.78;5095148;28;20497;-61
2023/02/15 08:29:11;;;;;;;100.18;60.10;;;6.80;99.90;;;7.20;87.33;102402.75;5113470;28;20485;-61
2023/02/15 08:31:41;;;;;;;102.65;58.20;;;7.00;99.90;;;6.81;87.34;102348.78;5113281;28;20040;-61
2023/02/15 08:34:14;;;;;;;100.00;59.30;;;6.90;99.90;;;7.26;87.41;102406.47;5112938;28;20122;-61
2023/02/15 08:36:44;;;;;;;98.57;59.17;;;6.90;99.90;;;7.51;87.42;102431.84;5094622;28;20142;-61
2023/02/15 08:39:14;;;;;;;;;;;7.20;99.90;;;7.87;86.27;102414.63;5113729;28;20043;-61
2023/02/15 08:41:45;;;;;;;98.80;59.75;;;7.60;99.90;;;8.26;85.55;102416.69;5112733;28;20010;-60
2023/02/15 08:44:17;;;;;;;94.90;57.72;;;7.90;99.90;;;8.61;84.39;102398.44;5113218;28;20547;-61
2023/02/15 08:46:48;;;;;;;95.32;57.85;;;8.40;99.90;;;8.77;81.55;102387.41;5094996;28;20043;-61
2023/02/15 08:49:21;;;;;;;94.30;55.92;;;8.90;99.90;;;9.29;80.56;102418.72;5112914;28;20039;-61
2023/02/15 08:51:51;;;;;;;93.35;59.08;;;9.10;99.90;;;9.10;78.95;102318.78;5113049;28;20443;-60
2023/02/15 08:54:21;;;;;;;87.18;56.53;;;9.50;99.90;;;9.84;78.44;102413.03;5095034;28;20040;-61
2023/02/15 08:56:50;;;;;;;;;;;9.70;99.90;;;10.01;77.21;102424.88;5095283;28;20134;-61
2023/02/15 08:59:21;;;;;;;87.05;55.95;;;9.80;99.90;;;10.41;76.50;102439.94;5094675;28;20089;-60
2023/02/15 09:01:52;;;;;;;85.25;54.22;;;10.20;99.90;;;10.72;74.95;102445.88;5112757;28;20032;-61
2023/02/15 09:04:22;;;;;;;;;;;10.40;99.90;;;10.92;74.25;102438.31;5113521;28;20050;-61
2023/02/15 09:06:51;;;;;;;84.22;53.83;;;10.70;99.90;;;11.04;74.12;102398.84;5094681;28;19955;-61
2023/02/15 09:09:20;;;;;;;81.30;51.83;;;10.90;99.90;;;10.53;72.69;102281.47;5112914;28;20092;-60
2023/02/15 09:11:51;;;;;;;84.13;52.17;;;11.10;99.90;;;11.54;72.04;102434.16;5112952;28;20094;-61
2023/02/15 09:14:27;;;;;;;85.20;51.88;;;11.30;99.90;;;11.86;71.25;102424.13;5112719;28;20112;-61
2023/02/15 09:16:56;;;;;;;77.88;51.10;;;11.50;99.90;;;12.07;70.31;102421.78;5112643;28;20126;-60
2023/02/15 09:19:26;;;;;;;78.32;51.60;;;11.80;99.90;;;12.20;69.34;102429.03;5112850;28;20097;-61
2023/02/15 09:21:54;;;;;;;81.95;51.97;;;11.90;99.90;;;11.95;68.81;102424.25;5112823;28;20043;-61
2023/02/15 09:24:23;;;;;;;77.82;52.08;;;11.60;99.90;;;11.77;69.27;102401.00;5094685;28;20063;-62
2023/02/15 09:26:55;;;;;;;84.25;51.78;;;11.60;99.90;;;11.58;69.96;102421.00;5112914;28;20073;-61
2023/02/15 09:29:24;;;;;;;82.93;53.08;;;11.20;99.90;;;10.96;72.22;102412.78;5112715;28;20093;-60
2023/02/15 09:31:53;;;;;;;92.10;54.63;;;10.70;99.90;;;10.15;74.17;102412.91;5094407;28;20047;-61
2023/02/15 09:34:23;;;;;;;89.93;56.80;;;9.90;99.90;;;9.39;77.83;102389.03;5112861;28;20039;-61
2023/02/15 09:36:53;;;;;;;90.00;55.35;;;9.30;99.90;;;8.78;79.02;102293.34;5115108;28;20100;-60
2023/02/15 09:39:24;;;;;;;94.65;57.97;;;9.10;99.90;;;9.44;80.54;102405.91;5116934;28;20047;-61
2023/02/15 09:42:32;;;;;;;86.40;54.83;;;9.00;99.90;;;9.04;80.93;102318.63;5116363;28;20489;-61
2023/02/15 09:45:28;;;;;;;93.00;55.35;;;9.10;99.90;;;10.06;80.57;102407.41;5098910;28;20131;-61
2023/02/15 09:48:41;;;;;;;94.72;58.08;;;9.50;99.90;;;10.70;79.29;102413.19;5116495;28;20097;-61
2023/02/15 09:51:44;;;;;;;93.75;57.70;;;10.20;99.90;;;11.20;76.98;102430.06;5099228;28;20124;-61
2023/02/15 09:54:37;;;;;;;91.40;57.15;;;10.80;99.90;;;10.94;75.29;102343.06;5097651;28;20058;-61
2023/02/15 09:57:12;;;;;;;93.25;55.60;;;11.00;99.90;;;11.59;73.90;102396.25;5097988;28;20115;-61
2023/02/15 09:59:52;;;;;;;83.75;52.97;;;11.40;99.90;;;12.13;72.40;102427.19;5116163;28;20039;-61
2023/02/15 10:02:39;;;;;;;89.40;54.80;;;11.80;99.90;;;12.28;70.65;102415.00;5116059;28;20044;-60
2023/02/15 10:05:23;;;;;;;87.30;54.83;;;12.10;99.90;;;12.49;69.01;102419.69;5116026;28;20104;-61
2023/02/15 10:08:23;;;;;;;86.03;52.72;;;12.40;99.90;;;12.72;68.46;102415.56;5116291;28;20043;-61
2023/02/15 10:11:38;;;;;;;80.65;51.00;;;12.60;99.90;;;12.97;67.29;102409.63;5115822;28;20047;-61
2023/02/15 10:14:10;;;;;;;88.68;53.75;;;12.80;99.90;;;13.07;66.54;102429.25;5097550;28;20077;-61
2023/02/15 10:16:51;;;;;;;79.03;52.35;;;12.80;99.90;;;13.09;65.62;102423.09;5115676;28;20350;-61
2023/02/15 10:19:34;;;;;;;83.18;54.38;;;12.90;99.90;;;13.12;65.08;102428.44;5115984;28;20420;-60
2023/02/15 10:22:18;;;;;;;85.93;55.88;;;12.90;99.90;;;13.14;64.74;102425.81;5097431;28;20515;-62
2023/02/15 10:25:21;;;;;;;85.28;52.35;;;12.90;99.90;;;12.61;64.79;102316.31;5097082;28;20071;-61
2023/02/15 10:27:51;;;;;;;79.50;52.50;;;13.00;99.90;;;13.37;64.99;102424.25;5111204;28;20394;-61
2023/02/15 10:30:30;;;;;;;85.68;53.13;;;13.10;99.90;;;12.04;65.38;102191.88;5115663;28;20036;-61
2023/02/15 10:33:04;;;;;;;83.95;54.20;;;13.20;99.90;;;13.53;65.01;102416.41;5115600;28;20062;-61
2023/02/15 10:35:46;;;;;;;78.50;52.22;;;13.30;99.90;;;13.52;64.05;102409.31;5115383;28;20040;-60
2023/02/15 10:38:25;;;;;;;85.07;51.92;;;13.30;99.90;;;13.58;64.58;102405.81;5115560;28;20480;-61
2023/02/15 10:41:11;;;;;;;80.47;52.30;;;13.30;99.90;;;13.56;64.30;102400.50;5115268;28;20051;-61
2023/02/15 10:44:08;;;;;;;84.28;52.78;;;13.40;99.90;;;13.73;63.79;102397.97;5115450;28;20096;-62
2023/02/15 10:46:58;;;;;;;80.10;51.72;;;13.50;99.90;;;13.56;62.96;102388.97;5114511;28;20157;-61
2023/02/15 10:50:16;;;;;;;79.97;51.35;;;13.50;99.90;;;13.81;62.77;102393.59;5115034;28;20044;-61
2023/02/15 10:53:04;;;;;;;83.20;51.85;;;13.60;99.90;;;13.90;62.22;102411.38;5094233;28;20057;-61
2023/02/15 10:55:51;;;;;;;77.03;50.15;;;13.70;99.90;;;13.47;62.82;102364.97;5115178;28;20048;-61
2023/02/15 10:58:36;;;;;;;78.45;48.05;;;13.50;99.90;;;13.32;62.87;102378.13;5096782;28;20043;-61
2023/02/15 11:01:14;;;;;;;75.90;50.38;;;13.40;99.90;;;13.40;63.14;102387.94;5096700;28;20414;-62